sensor_id;sensor_type;location;lat;lon;timestamp;P1;durP1;ratioP1;P2;durP2;ratioP2
14994;SDS011;7593;49.006;8.372;2022-12-18T00:01:58;39.87;;;22.97;;
14994;SDS011;7593;49.006;8.372;2022-12-18T00:04:25;38.23;;;22.10;;
14994;SDS011;7593;49.006;8.372;2022-12-18T00:06:52;34.87;;;21.07;;
14994;SDS011;7593;49.006;8.372;2022-12-18T00:09:19;37.00;;;21.47;;
14994;SDS011;7593;49.006;8.372;2022-12-18T00:11:46;36.10;;;22.20;;
14994;SDS011;7593;49.006;8.372;2022-12-18T00:14:15;36.27;;;21.43;;
14994;SDS011;7593;49.006;8.372;2022-12-18T00:16:42;37.13;;;20.93;;
14994;SDS011;7593;49.006;8.372;2022-12-18T00:19:10;34.93;;;21.23;;
14994;SDS011;7593;49.006;8.372;2022-12-18T00:21:37;39.57;;;22.27;;
14994;SDS011;7593;49.006;8.372;2022-12-18T00:24:04;36.57;;;20.83;;
14994;SDS011;7593;49.006;8.372;2022-12-18T00:26:32;34.30;;;21.10;;
14994;SDS011;7593;49.006;8.372;2022-12-18T00:29:00;36.43;;;21.33;;
14994;SDS011;7593;49.006;8.372;2022-12-18T00:31:29;35.37;;;21.23;;
14994;SDS011;7593;49.006;8.372;2022-12-18T00:33:56;37.60;;;23.07;;
14994;SDS011;7593;49.006;8.372;2022-12-18T00:36:24;38.30;;;22.70;;
14994;SDS011;7593;49.006;8.372;2022-12-18T00:38:53;36.20;;;22.27;;
14994;SDS011;7593;49.006;8.372;2022-12-18T00:41:21;35.63;;;21.23;;
14994;SDS011;7593;49.006;8.372;2022-12-18T00:44:02;37.40;;;22.33;;
14994;SDS011;7593;49.006;8.372;2022-12-18T00:46:32;35.90;;;22.07;;
14994;SDS011;7593;49.006;8.372;2022-12-18T00:48:59;42.97;;;24.30;;
14994;SDS011;7593;49.006;8.372;2022-12-18T00:51:26;38.13;;;22.73;;
14994;SDS011;7593;49.006;8.372;2022-12-18T00:53:53;32.97;;;21.13;;
14994;SDS011;7593;49.006;8.372;2022-12-18T00:56:20;43.60;;;25.80;;
14994;SDS011;7593;49.006;8.372;2022-12-18T00:58:47;39.33;;;22.60;;
14994;SDS011;7593;49.006;8.372;2022-12-18T01:01:14;38.03;;;21.67;;
14994;SDS011;7593;49.006;8.372;2022-12-18T01:03:42;36.33;;;21.63;;
14994;SDS011;7593;49.006;8.372;2022-12-18T01:06:10;43.40;;;24.60;;
14994;SDS011;7593;49.006;8.372;2022-12-18T01:08:38;43.17;;;24.73;;
14994;SDS011;7593;49.006;8.372;2022-12-18T01:11:07;38.93;;;21.70;;
14994;SDS011;7593;49.006;8.372;2022-12-18T01:13:34;33.13;;;20.73;;
14994;SDS011;7593;49.006;8.372;2022-12-18T01:16:01;34.40;;;21.03;;
14994;SDS011;7593;49.006;8.372;2022-12-18T01:18:28;35.43;;;20.63;;
14994;SDS011;7593;49.006;8.372;2022-12-18T01:20:56;34.63;;;20.57;;
14994;SDS011;7593;49.006;8.372;2022-12-18T01:23:23;43.87;;;24.90;;
14994;SDS011;7593;49.006;8.372;2022-12-18T01:25:50;45.33;;;25.13;;
14994;SDS011;7593;49.006;8.372;2022-12-18T01:28:16;52.97;;;28.47;;
14994;SDS011;7593;49.006;8.372;2022-12-18T01:30:43;39.13;;;23.27;;
14994;SDS011;7593;49.006;8.372;2022-12-18T01:33:10;43.23;;;24.80;;
14994;SDS011;7593;49.006;8.372;2022-12-18T01:35:39;49.17;;;27.63;;
14994;SDS011;7593;49.006;8.372;2022-12-18T01:38:09;34.70;;;21.57;;
14994;SDS011;7593;49.006;8.372;2022-12-18T01:40:36;35.13;;;21.53;;
14994;SDS011;7593;49.006;8.372;2022-12-18T01:43:02;35.57;;;21.03;;
14994;SDS011;7593;49.006;8.372;2022-12-18T01:45:29;50.93;;;27.90;;
14994;SDS011;7593;49.006;8.372;2022-12-18T01:47:57;35.80;;;21.07;;
14994;SDS011;7593;49.006;8.372;2022-12-18T01:50:28;34.57;;;20.67;;
14994;SDS011;7593;49.006;8.372;2022-12-18T01:52:58;35.73;;;20.13;;
14994;SDS011;7593;49.006;8.372;2022-12-18T01:55:30;38.77;;;22.80;;
14994;SDS011;7593;49.006;8.372;2022-12-18T01:58:01;43.13;;;24.83;;
14994;SDS011;7593;49.006;8.372;2022-12-18T02:00:27;41.93;;;24.43;;
14994;SDS011;7593;49.006;8.372;2022-12-18T02:02:55;38.40;;;23.03;;
14994;SDS011;7593;49.006;8.372;2022-12-18T02:05:24;35.77;;;21.43;;
14994;SDS011;7593;49.006;8.372;2022-12-18T02:08:03;35.43;;;20.97;;
14994;SDS011;7593;49.006;8.372;2022-12-18T02:10:38;34.30;;;20.50;;
14994;SDS011;7593;49.006;8.372;2022-12-18T02:13:13;34.97;;;20.27;;
14994;SDS011;7593;49.006;8.372;2022-12-18T02:15:47;42.43;;;25.50;;
14994;SDS011;7593;49.006;8.372;2022-12-18T02:18:21;35.90;;;21.90;;
14994;SDS011;7593;49.006;8.372;2022-12-18T02:20:53;35.40;;;20.80;;
14994;SDS011;7593;49.006;8.372;2022-12-18T02:23:31;37.80;;;20.57;;
14994;SDS011;7593;49.006;8.372;2022-12-18T02:26:14;40.03;;;22.60;;
14994;SDS011;7593;49.006;8.372;2022-12-18T02:28:45;36.20;;;22.40;;
14994;SDS011;7593;49.006;8.372;2022-12-18T02:31:16;37.03;;;22.10;;
14994;SDS011;7593;49.006;8.372;2022-12-18T02:33:47;36.77;;;21.43;;
14994;SDS011;7593;49.006;8.372;2022-12-18T02:36:16;39.03;;;21.07;;
14994;SDS011;7593;49.006;8.372;2022-12-18T02:38:44;34.03;;;20.80;;
14994;SDS011;7593;49.006;8.372;2022-12-18T02:41:14;36.00;;;21.20;;
14994;SDS011;7593;49.006;8.372;2022-12-18T02:43:45;39.83;;;21.47;;
14994;SDS011;7593;49.006;8.372;2022-12-18T02:46:28;33.07;;;20.20;;
14994;SDS011;7593;49.006;8.372;2022-12-18T02:49:01;36.17;;;21.37;;
14994;SDS011;7593;49.006;8.372;2022-12-18T02:51:37;32.17;;;19.97;;
14994;SDS011;7593;49.006;8.372;2022-12-18T02:54:15;31.73;;;20.97;;
14994;SDS011;7593;49.006;8.372;2022-12-18T02:57:07;34.87;;;20.90;;
14994;SDS011;7593;49.006;8.372;2022-12-18T02:59:45;32.93;;;20.07;;
14994;SDS011;7593;49.006;8.372;2022-12-18T03:02:19;30.87;;;18.70;;
14994;SDS011;7593;49.006;8.372;2022-12-18T03:04:50;32.73;;;19.03;;
14994;SDS011;7593;49.006;8.372;2022-12-18T03:07:30;33.57;;;20.60;;
14994;SDS011;7593;49.006;8.372;2022-12-18T03:10:03;31.47;;;19.50;;
14994;SDS011;7593;49.006;8.372;2022-12-18T03:12:36;33.13;;;20.27;;
14994;SDS011;7593;49.006;8.372;2022-12-18T03:15:16;33.53;;;19.47;;
14994;SDS011;7593;49.006;8.372;2022-12-18T03:17:49;31.50;;;19.10;;
14994;SDS011;7593;49.006;8.372;2022-12-18T03:20:21;32.83;;;20.20;;
14994;SDS011;7593;49.006;8.372;2022-12-18T03:22:51;34.57;;;19.37;;
14994;SDS011;7593;49.006;8.372;2022-12-18T03:25:21;31.97;;;19.33;;
14994;SDS011;7593;49.006;8.372;2022-12-18T03:27:51;31.63;;;19.47;;
14994;SDS011;7593;49.006;8.372;2022-12-18T03:30:22;27.83;;;17.80;;
14994;SDS011;7593;49.006;8.372;2022-12-18T03:32:52;31.27;;;19.07;;
14994;SDS011;7593;49.006;8.372;2022-12-18T03:35:24;34.33;;;19.27;;
14994;SDS011;7593;49.006;8.372;2022-12-18T03:37:54;31.83;;;18.17;;
14994;SDS011;7593;49.006;8.372;2022-12-18T03:40:22;32.23;;;19.00;;
14994;SDS011;7593;49.006;8.372;2022-12-18T03:42:57;29.03;;;17.60;;
14994;SDS011;7593;49.006;8.372;2022-12-18T03:45:31;31.80;;;18.93;;
14994;SDS011;7593;49.006;8.372;2022-12-18T03:48:01;30.13;;;17.63;;
14994;SDS011;7593;49.006;8.372;2022-12-18T03:50:35;30.40;;;17.90;;
14994;SDS011;7593;49.006;8.372;2022-12-18T03:53:17;35.47;;;20.40;;
14994;SDS011;7593;49.006;8.372;2022-12-18T03:55:52;28.10;;;16.77;;
14994;SDS011;7593;49.006;8.372;2022-12-18T03:58:22;29.97;;;18.50;;
14994;SDS011;7593;49.006;8.372;2022-12-18T04:00:51;31.30;;;18.47;;
14994;SDS011;7593;49.006;8.372;2022-12-18T04:03:21;31.77;;;17.57;;
14994;SDS011;7593;49.006;8.372;2022-12-18T04:05:49;33.63;;;18.00;;
14994;SDS011;7593;49.006;8.372;2022-12-18T04:08:18;30.07;;;18.63;;
14994;SDS011;7593;49.006;8.372;2022-12-18T04:10:45;33.33;;;19.20;;
14994;SDS011;7593;49.006;8.372;2022-12-18T04:13:12;32.50;;;18.93;;
14994;SDS011;7593;49.006;8.372;2022-12-18T04:15:49;28.00;;;17.20;;
14994;SDS011;7593;49.006;8.372;2022-12-18T04:18:16;28.47;;;18.00;;
14994;SDS011;7593;49.006;8.372;2022-12-18T04:20:43;33.97;;;19.57;;
14994;SDS011;7593;49.006;8.372;2022-12-18T04:23:09;38.50;;;19.07;;
14994;SDS011;7593;49.006;8.372;2022-12-18T04:25:36;35.07;;;19.70;;
14994;SDS011;7593;49.006;8.372;2022-12-18T04:28:03;30.67;;;19.67;;
14994;SDS011;7593;49.006;8.372;2022-12-18T04:30:31;32.77;;;19.70;;
14994;SDS011;7593;49.006;8.372;2022-12-18T04:32:58;34.73;;;18.30;;
14994;SDS011;7593;49.006;8.372;2022-12-18T04:35:25;30.97;;;18.87;;
14994;SDS011;7593;49.006;8.372;2022-12-18T04:37:52;38.27;;;19.87;;
14994;SDS011;7593;49.006;8.372;2022-12-18T04:40:18;34.47;;;19.20;;
14994;SDS011;7593;49.006;8.372;2022-12-18T04:42:46;41.10;;;20.27;;
14994;SDS011;7593;49.006;8.372;2022-12-18T04:45:13;38.60;;;20.27;;
14994;SDS011;7593;49.006;8.372;2022-12-18T04:47:41;36.53;;;19.77;;
14994;SDS011;7593;49.006;8.372;2022-12-18T04:50:08;38.80;;;20.90;;
14994;SDS011;7593;49.006;8.372;2022-12-18T04:52:34;38.90;;;21.47;;
14994;SDS011;7593;49.006;8.372;2022-12-18T04:55:02;40.03;;;20.30;;
14994;SDS011;7593;49.006;8.372;2022-12-18T04:57:29;46.07;;;20.40;;
14994;SDS011;7593;49.006;8.372;2022-12-18T04:59:55;45.70;;;21.37;;
14994;SDS011;7593;49.006;8.372;2022-12-18T05:02:22;37.63;;;20.70;;
14994;SDS011;7593;49.006;8.372;2022-12-18T05:04:50;45.17;;;23.10;;
14994;SDS011;7593;49.006;8.372;2022-12-18T05:07:17;43.13;;;22.53;;
14994;SDS011;7593;49.006;8.372;2022-12-18T05:09:43;49.27;;;22.07;;
14994;SDS011;7593;49.006;8.372;2022-12-18T05:12:10;62.53;;;23.23;;
14994;SDS011;7593;49.006;8.372;2022-12-18T05:14:37;44.30;;;22.07;;
14994;SDS011;7593;49.006;8.372;2022-12-18T05:17:04;43.03;;;22.53;;
14994;SDS011;7593;49.006;8.372;2022-12-18T05:19:30;39.90;;;20.90;;
14994;SDS011;7593;49.006;8.372;2022-12-18T05:21:58;42.07;;;22.40;;
14994;SDS011;7593;49.006;8.372;2022-12-18T05:24:26;41.43;;;21.63;;
14994;SDS011;7593;49.006;8.372;2022-12-18T05:26:53;45.20;;;23.47;;
14994;SDS011;7593;49.006;8.372;2022-12-18T05:29:20;43.50;;;21.73;;
14994;SDS011;7593;49.006;8.372;2022-12-18T05:31:46;41.80;;;22.10;;
14994;SDS011;7593;49.006;8.372;2022-12-18T05:34:13;52.57;;;24.60;;
14994;SDS011;7593;49.006;8.372;2022-12-18T05:36:40;44.23;;;23.70;;
14994;SDS011;7593;49.006;8.372;2022-12-18T05:39:08;42.73;;;22.43;;
14994;SDS011;7593;49.006;8.372;2022-12-18T05:41:35;44.67;;;22.37;;
14994;SDS011;7593;49.006;8.372;2022-12-18T05:44:02;47.63;;;23.73;;
14994;SDS011;7593;49.006;8.372;2022-12-18T05:46:29;42.63;;;22.57;;
14994;SDS011;7593;49.006;8.372;2022-12-18T05:48:58;46.30;;;22.87;;
14994;SDS011;7593;49.006;8.372;2022-12-18T05:51:25;49.47;;;23.23;;
14994;SDS011;7593;49.006;8.372;2022-12-18T05:53:52;38.57;;;21.83;;
14994;SDS011;7593;49.006;8.372;2022-12-18T05:56:21;42.57;;;22.50;;
14994;SDS011;7593;49.006;8.372;2022-12-18T05:58:50;40.53;;;21.07;;
14994;SDS011;7593;49.006;8.372;2022-12-18T06:01:18;39.67;;;22.20;;
14994;SDS011;7593;49.006;8.372;2022-12-18T06:03:47;42.07;;;22.40;;
14994;SDS011;7593;49.006;8.372;2022-12-18T06:06:14;41.80;;;22.00;;
14994;SDS011;7593;49.006;8.372;2022-12-18T06:08:42;39.37;;;20.73;;
14994;SDS011;7593;49.006;8.372;2022-12-18T06:11:09;37.63;;;21.07;;
14994;SDS011;7593;49.006;8.372;2022-12-18T06:13:38;39.97;;;22.03;;
14994;SDS011;7593;49.006;8.372;2022-12-18T06:16:05;40.37;;;21.93;;
14994;SDS011;7593;49.006;8.372;2022-12-18T06:18:32;41.87;;;22.57;;
14994;SDS011;7593;49.006;8.372;2022-12-18T06:20:59;40.90;;;21.83;;
14994;SDS011;7593;49.006;8.372;2022-12-18T06:23:27;41.43;;;21.97;;
14994;SDS011;7593;49.006;8.372;2022-12-18T06:25:53;43.77;;;22.73;;
14994;SDS011;7593;49.006;8.372;2022-12-18T06:28:20;41.97;;;22.70;;
14994;SDS011;7593;49.006;8.372;2022-12-18T06:30:48;44.07;;;22.97;;
14994;SDS011;7593;49.006;8.372;2022-12-18T06:33:16;42.63;;;22.47;;
14994;SDS011;7593;49.006;8.372;2022-12-18T06:35:43;37.40;;;21.10;;
14994;SDS011;7593;49.006;8.372;2022-12-18T06:38:10;42.87;;;21.73;;
14994;SDS011;7593;49.006;8.372;2022-12-18T06:40:37;41.87;;;21.63;;
14994;SDS011;7593;49.006;8.372;2022-12-18T06:43:04;38.10;;;20.90;;
14994;SDS011;7593;49.006;8.372;2022-12-18T06:45:32;38.33;;;20.53;;
14994;SDS011;7593;49.006;8.372;2022-12-18T06:48:01;36.53;;;19.97;;
14994;SDS011;7593;49.006;8.372;2022-12-18T06:50:27;32.10;;;18.90;;
14994;SDS011;7593;49.006;8.372;2022-12-18T06:52:54;35.33;;;20.13;;
14994;SDS011;7593;49.006;8.372;2022-12-18T06:55:21;35.13;;;19.70;;
14994;SDS011;7593;49.006;8.372;2022-12-18T06:57:48;38.10;;;20.50;;
14994;SDS011;7593;49.006;8.372;2022-12-18T07:00:15;39.63;;;20.10;;
14994;SDS011;7593;49.006;8.372;2022-12-18T07:02:41;38.37;;;20.77;;
14994;SDS011;7593;49.006;8.372;2022-12-18T07:05:10;39.13;;;20.63;;
14994;SDS011;7593;49.006;8.372;2022-12-18T07:07:36;36.67;;;20.40;;
14994;SDS011;7593;49.006;8.372;2022-12-18T07:10:03;36.20;;;19.67;;
14994;SDS011;7593;49.006;8.372;2022-12-18T07:12:31;41.00;;;20.83;;
14994;SDS011;7593;49.006;8.372;2022-12-18T07:14:58;42.20;;;20.27;;
14994;SDS011;7593;49.006;8.372;2022-12-18T07:17:24;45.17;;;21.43;;
14994;SDS011;7593;49.006;8.372;2022-12-18T07:19:51;39.20;;;21.33;;
14994;SDS011;7593;49.006;8.372;2022-12-18T07:22:19;38.07;;;20.43;;
14994;SDS011;7593;49.006;8.372;2022-12-18T07:24:46;34.40;;;19.67;;
14994;SDS011;7593;49.006;8.372;2022-12-18T07:27:13;36.63;;;20.77;;
14994;SDS011;7593;49.006;8.372;2022-12-18T07:29:39;33.10;;;17.37;;
14994;SDS011;7593;49.006;8.372;2022-12-18T07:32:06;37.90;;;20.13;;
14994;SDS011;7593;49.006;8.372;2022-12-18T07:34:33;37.97;;;19.43;;
14994;SDS011;7593;49.006;8.372;2022-12-18T07:37:00;43.57;;;22.10;;
14994;SDS011;7593;49.006;8.372;2022-12-18T07:39:28;38.20;;;20.03;;
14994;SDS011;7593;49.006;8.372;2022-12-18T07:41:55;38.43;;;20.80;;
14994;SDS011;7593;49.006;8.372;2022-12-18T07:44:40;39.90;;;21.23;;
14994;SDS011;7593;49.006;8.372;2022-12-18T07:47:06;37.50;;;21.13;;
14994;SDS011;7593;49.006;8.372;2022-12-18T07:49:33;48.53;;;25.53;;
14994;SDS011;7593;49.006;8.372;2022-12-18T07:52:00;38.63;;;20.80;;
14994;SDS011;7593;49.006;8.372;2022-12-18T07:54:28;35.57;;;18.90;;
14994;SDS011;7593;49.006;8.372;2022-12-18T07:56:55;36.67;;;21.10;;
14994;SDS011;7593;49.006;8.372;2022-12-18T07:59:22;37.83;;;20.63;;
14994;SDS011;7593;49.006;8.372;2022-12-18T08:01:48;36.90;;;19.57;;
14994;SDS011;7593;49.006;8.372;2022-12-18T08:04:20;42.20;;;19.77;;
14994;SDS011;7593;49.006;8.372;2022-12-18T08:06:52;40.67;;;19.83;;
14994;SDS011;7593;49.006;8.372;2022-12-18T08:09:22;39.57;;;20.27;;
14994;SDS011;7593;49.006;8.372;2022-12-18T08:11:51;40.93;;;20.93;;
14994;SDS011;7593;49.006;8.372;2022-12-18T08:14:18;44.43;;;21.47;;
14994;SDS011;7593;49.006;8.372;2022-12-18T08:16:44;41.23;;;20.97;;
14994;SDS011;7593;49.006;8.372;2022-12-18T08:19:11;43.10;;;22.23;;
14994;SDS011;7593;49.006;8.372;2022-12-18T08:21:38;42.77;;;22.37;;
14994;SDS011;7593;49.006;8.372;2022-12-18T08:24:05;43.07;;;22.50;;
14994;SDS011;7593;49.006;8.372;2022-12-18T08:26:33;52.90;;;25.70;;
14994;SDS011;7593;49.006;8.372;2022-12-18T08:29:01;46.30;;;21.80;;
14994;SDS011;7593;49.006;8.372;2022-12-18T08:31:28;45.23;;;21.97;;
14994;SDS011;7593;49.006;8.372;2022-12-18T08:33:56;47.13;;;23.00;;
14994;SDS011;7593;49.006;8.372;2022-12-18T08:36:23;39.13;;;22.53;;
14994;SDS011;7593;49.006;8.372;2022-12-18T08:38:51;40.07;;;21.90;;
14994;SDS011;7593;49.006;8.372;2022-12-18T08:41:18;42.17;;;23.30;;
14994;SDS011;7593;49.006;8.372;2022-12-18T08:43:45;39.40;;;21.60;;
14994;SDS011;7593;49.006;8.372;2022-12-18T08:46:32;55.10;;;27.70;;
14994;SDS011;7593;49.006;8.372;2022-12-18T08:49:01;40.70;;;21.63;;
14994;SDS011;7593;49.006;8.372;2022-12-18T08:51:29;40.07;;;21.90;;
14994;SDS011;7593;49.006;8.372;2022-12-18T08:53:59;38.07;;;21.00;;
14994;SDS011;7593;49.006;8.372;2022-12-18T08:56:29;38.67;;;21.13;;
14994;SDS011;7593;49.006;8.372;2022-12-18T08:59:08;43.17;;;22.23;;
14994;SDS011;7593;49.006;8.372;2022-12-18T09:01:53;43.80;;;23.60;;
14994;SDS011;7593;49.006;8.372;2022-12-18T09:04:40;35.47;;;20.53;;
14994;SDS011;7593;49.006;8.372;2022-12-18T09:07:16;40.97;;;23.90;;
14994;SDS011;7593;49.006;8.372;2022-12-18T09:09:43;50.53;;;26.70;;
14994;SDS011;7593;49.006;8.372;2022-12-18T09:12:10;44.43;;;23.17;;
14994;SDS011;7593;49.006;8.372;2022-12-18T09:14:37;49.17;;;28.37;;
14994;SDS011;7593;49.006;8.372;2022-12-18T09:17:05;42.33;;;23.70;;
14994;SDS011;7593;49.006;8.372;2022-12-18T09:19:32;43.67;;;22.13;;
14994;SDS011;7593;49.006;8.372;2022-12-18T09:21:58;37.27;;;21.30;;
14994;SDS011;7593;49.006;8.372;2022-12-18T09:24:25;41.77;;;22.27;;
14994;SDS011;7593;49.006;8.372;2022-12-18T09:26:52;38.83;;;21.83;;
14994;SDS011;7593;49.006;8.372;2022-12-18T09:29:19;42.20;;;21.80;;
14994;SDS011;7593;49.006;8.372;2022-12-18T09:37:07;39.93;;;23.20;;
14994;SDS011;7593;49.006;8.372;2022-12-18T09:39:34;46.93;;;28.17;;
14994;SDS011;7593;49.006;8.372;2022-12-18T09:42:01;44.57;;;23.43;;
14994;SDS011;7593;49.006;8.372;2022-12-18T09:44:28;43.23;;;22.73;;
14994;SDS011;7593;49.006;8.372;2022-12-18T09:46:59;40.03;;;23.17;;
14994;SDS011;7593;49.006;8.372;2022-12-18T09:49:36;38.07;;;22.37;;
14994;SDS011;7593;49.006;8.372;2022-12-18T09:52:10;41.47;;;23.70;;
14994;SDS011;7593;49.006;8.372;2022-12-18T09:54:41;41.97;;;22.83;;
14994;SDS011;7593;49.006;8.372;2022-12-18T09:57:13;40.60;;;24.00;;
14994;SDS011;7593;49.006;8.372;2022-12-18T09:59:41;37.80;;;22.60;;
14994;SDS011;7593;49.006;8.372;2022-12-18T10:04:46;34.30;;;21.10;;
14994;SDS011;7593;49.006;8.372;2022-12-18T10:07:20;37.67;;;21.90;;
14994;SDS011;7593;49.006;8.372;2022-12-18T10:09:56;37.17;;;21.40;;
14994;SDS011;7593;49.006;8.372;2022-12-18T10:12:31;36.13;;;20.93;;
14994;SDS011;7593;49.006;8.372;2022-12-18T10:15:06;37.77;;;21.87;;
14994;SDS011;7593;49.006;8.372;2022-12-18T10:17:41;33.77;;;21.33;;
14994;SDS011;7593;49.006;8.372;2022-12-18T10:20:16;36.23;;;20.20;;
14994;SDS011;7593;49.006;8.372;2022-12-18T10:22:50;38.77;;;21.97;;
14994;SDS011;7593;49.006;8.372;2022-12-18T10:25:23;52.17;;;31.17;;
14994;SDS011;7593;49.006;8.372;2022-12-18T10:27:53;62.60;;;35.90;;
14994;SDS011;7593;49.006;8.372;2022-12-18T10:30:24;56.67;;;32.73;;
14994;SDS011;7593;49.006;8.372;2022-12-18T10:32:51;45.40;;;25.77;;
14994;SDS011;7593;49.006;8.372;2022-12-18T10:35:21;56.93;;;32.07;;
14994;SDS011;7593;49.006;8.372;2022-12-18T10:38:00;36.93;;;22.70;;
14994;SDS011;7593;49.006;8.372;2022-12-18T10:40:29;38.83;;;23.10;;
14994;SDS011;7593;49.006;8.372;2022-12-18T10:43:09;36.07;;;21.10;;
14994;SDS011;7593;49.006;8.372;2022-12-18T10:45:38;34.23;;;19.97;;
14994;SDS011;7593;49.006;8.372;2022-12-18T10:48:16;32.10;;;20.10;;
14994;SDS011;7593;49.006;8.372;2022-12-18T10:50:47;41.07;;;25.37;;
14994;SDS011;7593;49.006;8.372;2022-12-18T10:53:18;37.53;;;22.93;;
14994;SDS011;7593;49.006;8.372;2022-12-18T10:55:48;40.33;;;24.77;;
14994;SDS011;7593;49.006;8.372;2022-12-18T10:58:21;37.37;;;21.77;;
14994;SDS011;7593;49.006;8.372;2022-12-18T11:03:45;42.80;;;23.60;;
14994;SDS011;7593;49.006;8.372;2022-12-18T11:06:25;40.23;;;23.00;;
14994;SDS011;7593;49.006;8.372;2022-12-18T11:08:57;40.77;;;25.00;;
14994;SDS011;7593;49.006;8.372;2022-12-18T11:11:24;42.40;;;22.77;;
14994;SDS011;7593;49.006;8.372;2022-12-18T11:13:56;39.80;;;24.40;;
14994;SDS011;7593;49.006;8.372;2022-12-18T11:16:27;39.50;;;26.23;;
14994;SDS011;7593;49.006;8.372;2022-12-18T11:18:55;45.10;;;23.50;;
14994;SDS011;7593;49.006;8.372;2022-12-18T11:21:46;41.70;;;24.53;;
14994;SDS011;7593;49.006;8.372;2022-12-18T11:24:19;40.53;;;23.53;;
14994;SDS011;7593;49.006;8.372;2022-12-18T11:26:49;40.00;;;23.40;;
14994;SDS011;7593;49.006;8.372;2022-12-18T11:29:16;49.13;;;24.13;;
14994;SDS011;7593;49.006;8.372;2022-12-18T11:31:48;47.43;;;24.67;;
14994;SDS011;7593;49.006;8.372;2022-12-18T11:34:16;39.43;;;23.77;;
14994;SDS011;7593;49.006;8.372;2022-12-18T11:36:52;44.40;;;23.77;;
14994;SDS011;7593;49.006;8.372;2022-12-18T11:39:31;41.17;;;23.53;;
14994;SDS011;7593;49.006;8.372;2022-12-18T11:42:04;42.87;;;24.70;;
14994;SDS011;7593;49.006;8.372;2022-12-18T11:44:39;38.63;;;23.77;;
14994;SDS011;7593;49.006;8.372;2022-12-18T11:47:13;41.90;;;24.90;;
14994;SDS011;7593;49.006;8.372;2022-12-18T11:49:47;40.30;;;24.50;;
14994;SDS011;7593;49.006;8.372;2022-12-18T11:52:18;39.00;;;24.17;;
14994;SDS011;7593;49.006;8.372;2022-12-18T11:54:50;47.27;;;25.10;;
14994;SDS011;7593;49.006;8.372;2022-12-18T11:57:19;42.47;;;24.67;;
14994;SDS011;7593;49.006;8.372;2022-12-18T11:59:58;43.23;;;23.50;;
14994;SDS011;7593;49.006;8.372;2022-12-18T12:02:34;43.40;;;23.60;;
14994;SDS011;7593;49.006;8.372;2022-12-18T12:05:28;36.50;;;22.93;;
14994;SDS011;7593;49.006;8.372;2022-12-18T12:08:10;38.63;;;23.77;;
14994;SDS011;7593;49.006;8.372;2022-12-18T12:10:47;40.47;;;23.63;;
14994;SDS011;7593;49.006;8.372;2022-12-18T12:13:23;36.63;;;22.70;;
14994;SDS011;7593;49.006;8.372;2022-12-18T12:15:58;39.17;;;23.73;;
14994;SDS011;7593;49.006;8.372;2022-12-18T12:18:40;41.10;;;24.40;;
14994;SDS011;7593;49.006;8.372;2022-12-18T12:21:16;40.67;;;24.83;;
14994;SDS011;7593;49.006;8.372;2022-12-18T12:23:52;40.50;;;24.23;;
14994;SDS011;7593;49.006;8.372;2022-12-18T12:26:26;36.33;;;23.43;;
14994;SDS011;7593;49.006;8.372;2022-12-18T12:29:05;65.63;;;25.50;;
14994;SDS011;7593;49.006;8.372;2022-12-18T12:31:43;40.90;;;25.37;;
14994;SDS011;7593;49.006;8.372;2022-12-18T12:34:22;46.73;;;24.53;;
14994;SDS011;7593;49.006;8.372;2022-12-18T12:37:00;37.43;;;24.47;;
14994;SDS011;7593;49.006;8.372;2022-12-18T12:39:40;40.70;;;24.13;;
14994;SDS011;7593;49.006;8.372;2022-12-18T12:42:13;35.27;;;23.40;;
14994;SDS011;7593;49.006;8.372;2022-12-18T12:45:03;36.00;;;23.73;;
14994;SDS011;7593;49.006;8.372;2022-12-18T12:47:33;36.07;;;23.73;;
14994;SDS011;7593;49.006;8.372;2022-12-18T12:50:03;36.53;;;23.53;;
14994;SDS011;7593;49.006;8.372;2022-12-18T12:52:33;44.93;;;23.90;;
14994;SDS011;7593;49.006;8.372;2022-12-18T12:55:06;36.37;;;23.07;;
14994;SDS011;7593;49.006;8.372;2022-12-18T12:57:43;35.93;;;23.13;;
14994;SDS011;7593;49.006;8.372;2022-12-18T13:00:15;50.10;;;24.07;;
14994;SDS011;7593;49.006;8.372;2022-12-18T13:02:45;35.57;;;21.73;;
14994;SDS011;7593;49.006;8.372;2022-12-18T13:05:18;35.47;;;22.50;;
14994;SDS011;7593;49.006;8.372;2022-12-18T13:07:50;37.77;;;23.50;;
14994;SDS011;7593;49.006;8.372;2022-12-18T13:10:26;39.70;;;23.33;;
14994;SDS011;7593;49.006;8.372;2022-12-18T13:12:58;41.27;;;23.83;;
14994;SDS011;7593;49.006;8.372;2022-12-18T13:15:28;33.87;;;21.77;;
14994;SDS011;7593;49.006;8.372;2022-12-18T13:20:47;50.37;;;22.63;;
14994;SDS011;7593;49.006;8.372;2022-12-18T13:23:30;41.33;;;23.13;;
14994;SDS011;7593;49.006;8.372;2022-12-18T13:26:00;36.03;;;21.97;;
14994;SDS011;7593;49.006;8.372;2022-12-18T13:29:01;34.77;;;21.87;;
14994;SDS011;7593;49.006;8.372;2022-12-18T13:34:29;43.57;;;22.63;;
14994;SDS011;7593;49.006;8.372;2022-12-18T13:36:57;41.27;;;22.67;;
14994;SDS011;7593;49.006;8.372;2022-12-18T13:40:02;36.10;;;23.33;;
14994;SDS011;7593;49.006;8.372;2022-12-18T13:42:50;38.60;;;22.47;;
14994;SDS011;7593;49.006;8.372;2022-12-18T13:45:42;34.40;;;22.33;;
14994;SDS011;7593;49.006;8.372;2022-12-18T13:48:18;38.60;;;22.80;;
14994;SDS011;7593;49.006;8.372;2022-12-18T13:51:00;32.97;;;22.17;;
14994;SDS011;7593;49.006;8.372;2022-12-18T13:53:31;38.53;;;23.17;;
14994;SDS011;7593;49.006;8.372;2022-12-18T13:56:02;34.40;;;21.33;;
14994;SDS011;7593;49.006;8.372;2022-12-18T13:58:31;35.23;;;23.93;;
14994;SDS011;7593;49.006;8.372;2022-12-18T14:00:58;51.17;;;26.07;;
14994;SDS011;7593;49.006;8.372;2022-12-18T14:03:27;35.67;;;23.33;;
14994;SDS011;7593;49.006;8.372;2022-12-18T14:05:58;35.50;;;23.07;;
14994;SDS011;7593;49.006;8.372;2022-12-18T14:08:32;39.93;;;24.67;;
14994;SDS011;7593;49.006;8.372;2022-12-18T14:11:03;42.60;;;26.37;;
14994;SDS011;7593;49.006;8.372;2022-12-18T14:13:33;50.47;;;24.73;;
14994;SDS011;7593;49.006;8.372;2022-12-18T14:16:03;32.70;;;22.10;;
14994;SDS011;7593;49.006;8.372;2022-12-18T14:18:33;33.10;;;21.40;;
14994;SDS011;7593;49.006;8.372;2022-12-18T14:21:14;37.00;;;22.67;;
14994;SDS011;7593;49.006;8.372;2022-12-18T14:23:44;34.30;;;23.17;;
14994;SDS011;7593;49.006;8.372;2022-12-18T14:26:21;34.63;;;23.17;;
14994;SDS011;7593;49.006;8.372;2022-12-18T14:28:53;43.70;;;23.87;;
14994;SDS011;7593;49.006;8.372;2022-12-18T14:31:21;44.57;;;26.00;;
14994;SDS011;7593;49.006;8.372;2022-12-18T14:33:49;39.40;;;24.07;;
14994;SDS011;7593;49.006;8.372;2022-12-18T14:36:17;39.57;;;23.93;;
14994;SDS011;7593;49.006;8.372;2022-12-18T14:38:47;37.27;;;25.33;;
14994;SDS011;7593;49.006;8.372;2022-12-18T14:41:19;37.20;;;23.70;;
14994;SDS011;7593;49.006;8.372;2022-12-18T14:43:47;35.47;;;23.20;;
14994;SDS011;7593;49.006;8.372;2022-12-18T14:46:27;36.90;;;25.00;;
14994;SDS011;7593;49.006;8.372;2022-12-18T14:48:57;36.17;;;23.23;;
14994;SDS011;7593;49.006;8.372;2022-12-18T14:51:25;36.63;;;24.17;;
14994;SDS011;7593;49.006;8.372;2022-12-18T14:53:53;38.27;;;23.17;;
14994;SDS011;7593;49.006;8.372;2022-12-18T14:56:22;38.83;;;25.10;;
14994;SDS011;7593;49.006;8.372;2022-12-18T14:58:52;43.93;;;25.00;;
14994;SDS011;7593;49.006;8.372;2022-12-18T15:01:21;38.37;;;24.07;;
14994;SDS011;7593;49.006;8.372;2022-12-18T15:03:51;39.97;;;26.57;;
14994;SDS011;7593;49.006;8.372;2022-12-18T15:06:27;46.03;;;26.20;;
14994;SDS011;7593;49.006;8.372;2022-12-18T15:08:56;41.97;;;25.80;;
14994;SDS011;7593;49.006;8.372;2022-12-18T15:11:27;37.20;;;24.47;;